sensor_id;sensor_type;location;lat;lon;timestamp;P1;durP1;ratioP1;P2;durP2;ratioP2
73104;SDS011;61296;50.526;30.792;2022-11-11T00:08:29;53.90;;;25.08;;
73104;SDS011;61296;50.526;30.792;2022-11-11T00:40:19;44.60;;;22.27;;
73104;SDS011;61296;50.526;30.792;2022-11-11T00:55:57;49.97;;;22.55;;
73104;SDS011;61296;50.526;30.792;2022-11-11T01:11:36;51.08;;;22.55;;
73104;SDS011;61296;50.526;30.792;2022-11-11T01:27:14;46.05;;;21.88;;
73104;SDS011;61296;50.526;30.792;2022-11-11T01:43:12;45.13;;;21.48;;
73104;SDS011;61296;50.526;30.792;2022-11-11T01:58:59;48.53;;;21.05;;
73104;SDS011;61296;50.526;30.792;2022-11-11T02:14:42;40.60;;;18.92;;
73104;SDS011;61296;50.526;30.792;2022-11-11T02:30:23;39.25;;;17.55;;
73104;SDS011;61296;50.526;30.792;2022-11-11T06:59:07;144.93;;;29.38;;
73104;SDS011;61296;50.526;30.792;2022-11-11T07:14:45;118.70;;;29.42;;
73104;SDS011;61296;50.526;30.792;2022-11-11T07:30:24;90.50;;;26.23;;
73104;SDS011;61296;50.526;30.792;2022-11-11T07:46:02;101.05;;;26.10;;
73104;SDS011;61296;50.526;30.792;2022-11-11T08:01:40;83.65;;;25.33;;
73104;SDS011;61296;50.526;30.792;2022-11-11T08:17:18;82.97;;;27.45;;
73104;SDS011;61296;50.526;30.792;2022-11-11T08:33:03;73.35;;;25.58;;
73104;SDS011;61296;50.526;30.792;2022-11-11T08:48:42;80.68;;;25.80;;
73104;SDS011;61296;50.526;30.792;2022-11-11T09:04:21;84.78;;;26.95;;
73104;SDS011;61296;50.526;30.792;2022-11-11T09:19:59;82.45;;;24.90;;
73104;SDS011;61296;50.526;30.792;2022-11-11T09:35:37;75.18;;;25.65;;
73104;SDS011;61296;50.526;30.792;2022-11-11T09:51:17;64.63;;;23.50;;
73104;SDS011;61296;50.526;30.792;2022-11-11T10:07:03;50.97;;;21.30;;
73104;SDS011;61296;50.526;30.792;2022-11-11T10:22:49;43.60;;;20.27;;
73104;SDS011;61296;50.526;30.792;2022-11-11T10:38:43;45.58;;;20.45;;
73104;SDS011;61296;50.526;30.792;2022-11-11T10:54:39;36.95;;;18.75;;
73104;SDS011;61296;50.526;30.792;2022-11-11T11:10:31;33.30;;;16.60;;
73104;SDS011;61296;50.526;30.792;2022-11-11T11:26:14;39.00;;;16.58;;
73104;SDS011;61296;50.526;30.792;2022-11-11T11:41:53;31.20;;;14.25;;
73104;SDS011;61296;50.526;30.792;2022-11-11T12:13:28;24.67;;;13.47;;
73104;SDS011;61296;50.526;30.792;2022-11-11T13:17:39;15.18;;;8.40;;
73104;SDS011;61296;50.526;30.792;2022-11-11T13:33:18;18.23;;;9.50;;
73104;SDS011;61296;50.526;30.792;2022-11-11T13:48:59;16.42;;;9.20;;
73104;SDS011;61296;50.526;30.792;2022-11-11T14:20:41;24.13;;;12.82;;
73104;SDS011;61296;50.526;30.792;2022-11-11T14:36:26;20.42;;;10.20;;
73104;SDS011;61296;50.526;30.792;2022-11-11T15:08:18;20.13;;;11.57;;
73104;SDS011;61296;50.526;30.792;2022-11-11T15:39:48;45.88;;;23.73;;
73104;SDS011;61296;50.526;30.792;2022-11-11T15:55:30;31.25;;;16.88;;
73104;SDS011;61296;50.526;30.792;2022-11-11T16:11:13;34.40;;;18.27;;
73104;SDS011;61296;50.526;30.792;2022-11-11T16:26:56;29.52;;;16.50;;
73104;SDS011;61296;50.526;30.792;2022-11-11T16:42:35;33.85;;;20.00;;
73104;SDS011;61296;50.526;30.792;2022-11-11T16:58:20;49.22;;;27.23;;
73104;SDS011;61296;50.526;30.792;2022-11-11T17:13:59;34.35;;;19.02;;
73104;SDS011;61296;50.526;30.792;2022-11-11T17:29:39;26.30;;;14.07;;
73104;SDS011;61296;50.526;30.792;2022-11-11T17:45:26;20.02;;;11.98;;
73104;SDS011;61296;50.526;30.792;2022-11-11T18:01:47;34.85;;;17.90;;
73104;SDS011;61296;50.526;30.792;2022-11-11T18:17:25;34.83;;;18.40;;
73104;SDS011;61296;50.526;30.792;2022-11-11T18:33:04;47.83;;;24.75;;
73104;SDS011;61296;50.526;30.792;2022-11-11T18:48:45;40.28;;;21.23;;
73104;SDS011;61296;50.526;30.792;2022-11-11T19:04:23;36.00;;;18.88;;
73104;SDS011;61296;50.526;30.792;2022-11-11T19:20:02;37.13;;;18.83;;
73104;SDS011;61296;50.526;30.792;2022-11-11T19:35:40;48.55;;;24.17;;
73104;SDS011;61296;50.526;30.792;2022-11-11T19:51:20;38.65;;;21.17;;
73104;SDS011;61296;50.526;30.792;2022-11-11T20:06:59;43.58;;;22.30;;
73104;SDS011;61296;50.526;30.792;2022-11-11T20:22:39;55.47;;;27.65;;
73104;SDS011;61296;50.526;30.792;2022-11-11T20:38:18;59.40;;;29.52;;
73104;SDS011;61296;50.526;30.792;2022-11-11T20:53:57;51.13;;;28.17;;
73104;SDS011;61296;50.526;30.792;2022-11-11T21:09:35;44.97;;;23.08;;
73104;SDS011;61296;50.526;30.792;2022-11-11T21:25:14;46.63;;;23.45;;
73104;SDS011;61296;50.526;30.792;2022-11-11T21:40:52;38.17;;;20.90;;
73104;SDS011;61296;50.526;30.792;2022-11-11T21:56:38;38.92;;;18.90;;
73104;SDS011;61296;50.526;30.792;2022-11-11T22:12:16;38.85;;;20.25;;
73104;SDS011;61296;50.526;30.792;2022-11-11T22:27:54;46.67;;;20.63;;
73104;SDS011;61296;50.526;30.792;2022-11-11T22:43:36;31.02;;;17.08;;
73104;SDS011;61296;50.526;30.792;2022-11-11T22:59:18;32.80;;;17.45;;
73104;SDS011;61296;50.526;30.792;2022-11-11T23:14:56;37.05;;;16.95;;
73104;SDS011;61296;50.526;30.792;2022-11-11T23:30:34;34.45;;;15.85;;
73104;SDS011;61296;50.526;30.792;2022-11-11T23:46:12;36.20;;;19.08;;
